sensor_id;sensor_type;location;lat;lon;timestamp;temperature;humidity
8591;DHT22;4333;48.322;14.340;2023-03-23T00:02:27;8.00;99.90
8591;DHT22;4333;48.322;14.340;2023-03-23T00:04:55;8.00;99.90
8591;DHT22;4333;48.322;14.340;2023-03-23T00:07:22;7.90;99.90
8591;DHT22;4333;48.322;14.340;2023-03-23T00:09:49;7.90;99.90
8591;DHT22;4333;48.322;14.340;2023-03-23T00:12:21;7.90;99.90
8591;DHT22;4333;48.322;14.340;2023-03-23T00:15:05;8.00;99.90
8591;DHT22;4333;48.322;14.340;2023-03-23T00:17:32;8.10;99.90
8591;DHT22;4333;48.322;14.340;2023-03-23T00:20:01;8.10;99.90
8591;DHT22;4333;48.322;14.340;2023-03-23T00:22:29;8.10;99.90
8591;DHT22;4333;48.322;14.340;2023-03-23T00:24:55;8.20;99.90
8591;DHT22;4333;48.322;14.340;2023-03-23T00:27:22;8.30;99.90
8591;DHT22;4333;48.322;14.340;2023-03-23T00:29:51;8.30;99.90
8591;DHT22;4333;48.322;14.340;2023-03-23T00:32:22;8.30;99.90
8591;DHT22;4333;48.322;14.340;2023-03-23T00:34:53;8.20;99.90
8591;DHT22;4333;48.322;14.340;2023-03-23T00:37:19;8.40;99.90
8591;DHT22;4333;48.322;14.340;2023-03-23T00:39:45;8.40;99.90
8591;DHT22;4333;48.322;14.340;2023-03-23T00:42:15;8.30;99.90
8591;DHT22;4333;48.322;14.340;2023-03-23T00:44:42;8.20;99.90
8591;DHT22;4333;48.322;14.340;2023-03-23T00:47:09;8.20;99.90
8591;DHT22;4333;48.322;14.340;2023-03-23T00:49:36;8.00;99.90
8591;DHT22;4333;48.322;14.340;2023-03-23T00:52:03;7.90;99.90
8591;DHT22;4333;48.322;14.340;2023-03-23T00:54:30;7.90;99.90
8591;DHT22;4333;48.322;14.340;2023-03-23T00:56:56;7.90;99.90
8591;DHT22;4333;48.322;14.340;2023-03-23T00:59:22;7.80;99.90
8591;DHT22;4333;48.322;14.340;2023-03-23T01:01:48;7.70;99.90
8591;DHT22;4333;48.322;14.340;2023-03-23T01:04:15;7.60;99.90
8591;DHT22;4333;48.322;14.340;2023-03-23T01:06:42;7.60;99.90
8591;DHT22;4333;48.322;14.340;2023-03-23T01:09:13;7.60;99.90
8591;DHT22;4333;48.322;14.340;2023-03-23T01:11:46;7.50;99.90
8591;DHT22;4333;48.322;14.340;2023-03-23T01:14:14;7.50;99.90
8591;DHT22;4333;48.322;14.340;2023-03-23T01:16:41;7.60;99.90
8591;DHT22;4333;48.322;14.340;2023-03-23T01:19:06;7.50;99.90
8591;DHT22;4333;48.322;14.340;2023-03-23T01:21:32;7.30;99.90
8591;DHT22;4333;48.322;14.340;2023-03-23T01:23:58;7.30;99.90
8591;DHT22;4333;48.322;14.340;2023-03-23T01:26:26;7.30;99.90
8591;DHT22;4333;48.322;14.340;2023-03-23T01:28:52;7.30;99.90
8591;DHT22;4333;48.322;14.340;2023-03-23T01:31:21;7.20;99.90
8591;DHT22;4333;48.322;14.340;2023-03-23T01:33:50;7.20;99.90
8591;DHT22;4333;48.322;14.340;2023-03-23T01:36:20;7.20;99.90
8591;DHT22;4333;48.322;14.340;2023-03-23T01:38:47;7.30;99.90
8591;DHT22;4333;48.322;14.340;2023-03-23T01:41:14;7.30;99.90
8591;DHT22;4333;48.322;14.340;2023-03-23T01:46:28;7.30;99.90
8591;DHT22;4333;48.322;14.340;2023-03-23T01:48:56;7.30;99.90
8591;DHT22;4333;48.322;14.340;2023-03-23T01:51:24;7.30;99.90
8591;DHT22;4333;48.322;14.340;2023-03-23T01:53:58;7.30;99.90
8591;DHT22;4333;48.322;14.340;2023-03-23T01:56:29;7.30;99.90
8591;DHT22;4333;48.322;14.340;2023-03-23T01:58:58;7.30;99.90
8591;DHT22;4333;48.322;14.340;2023-03-23T02:01:24;7.30;99.90
8591;DHT22;4333;48.322;14.340;2023-03-23T02:03:52;7.20;99.90
8591;DHT22;4333;48.322;14.340;2023-03-23T02:06:18;7.20;99.90
8591;DHT22;4333;48.322;14.340;2023-03-23T02:08:44;7.20;99.90
8591;DHT22;4333;48.322;14.340;2023-03-23T02:11:13;7.10;99.90
8591;DHT22;4333;48.322;14.340;2023-03-23T02:13:39;7.20;99.90
8591;DHT22;4333;48.322;14.340;2023-03-23T02:24:21;7.00;99.90
8591;DHT22;4333;48.322;14.340;2023-03-23T02:27:00;6.90;99.90
8591;DHT22;4333;48.322;14.340;2023-03-23T02:34:56;7.00;99.90
8591;DHT22;4333;48.322;14.340;2023-03-23T02:37:40;7.00;99.90
8591;DHT22;4333;48.322;14.340;2023-03-23T02:40:12;7.00;99.90
8591;DHT22;4333;48.322;14.340;2023-03-23T02:42:43;7.00;99.90
8591;DHT22;4333;48.322;14.340;2023-03-23T02:45:11;7.00;99.90
8591;DHT22;4333;48.322;14.340;2023-03-23T02:47:39;7.00;99.90
8591;DHT22;4333;48.322;14.340;2023-03-23T02:50:10;7.00;99.90
8591;DHT22;4333;48.322;14.340;2023-03-23T02:52:38;7.10;99.90
8591;DHT22;4333;48.322;14.340;2023-03-23T02:55:05;7.10;99.90
8591;DHT22;4333;48.322;14.340;2023-03-23T02:57:31;7.10;99.90
8591;DHT22;4333;48.322;14.340;2023-03-23T02:59:57;7.10;99.90
8591;DHT22;4333;48.322;14.340;2023-03-23T03:02:35;7.00;99.90
8591;DHT22;4333;48.322;14.340;2023-03-23T03:05:30;7.00;99.90
8591;DHT22;4333;48.322;14.340;2023-03-23T03:08:21;7.00;99.90
8591;DHT22;4333;48.322;14.340;2023-03-23T03:11:08;6.90;99.90
8591;DHT22;4333;48.322;14.340;2023-03-23T03:13:48;6.90;99.90
8591;DHT22;4333;48.322;14.340;2023-03-23T03:21:38;6.90;99.90
8591;DHT22;4333;48.322;14.340;2023-03-23T03:24:06;7.00;99.90
8591;DHT22;4333;48.322;14.340;2023-03-23T03:26:39;7.00;99.90
8591;DHT22;4333;48.322;14.340;2023-03-23T03:29:09;7.00;99.90
8591;DHT22;4333;48.322;14.340;2023-03-23T03:31:39;7.00;99.90
8591;DHT22;4333;48.322;14.340;2023-03-23T03:34:11;7.00;99.90
8591;DHT22;4333;48.322;14.340;2023-03-23T03:36:37;7.00;99.90
8591;DHT22;4333;48.322;14.340;2023-03-23T03:39:08;6.90;99.90
8591;DHT22;4333;48.322;14.340;2023-03-23T03:41:35;6.90;99.90
8591;DHT22;4333;48.322;14.340;2023-03-23T03:44:03;6.80;99.90
8591;DHT22;4333;48.322;14.340;2023-03-23T03:46:29;6.80;99.90
8591;DHT22;4333;48.322;14.340;2023-03-23T03:48:57;6.70;99.90
8591;DHT22;4333;48.322;14.340;2023-03-23T03:51:24;6.80;99.90
8591;DHT22;4333;48.322;14.340;2023-03-23T03:53:50;6.70;99.90
8591;DHT22;4333;48.322;14.340;2023-03-23T03:56:16;6.60;99.90
8591;DHT22;4333;48.322;14.340;2023-03-23T03:58:42;6.60;99.90
8591;DHT22;4333;48.322;14.340;2023-03-23T04:01:10;6.60;99.90
8591;DHT22;4333;48.322;14.340;2023-03-23T04:03:37;6.60;99.90
8591;DHT22;4333;48.322;14.340;2023-03-23T04:06:03;6.60;99.90
8591;DHT22;4333;48.322;14.340;2023-03-23T04:08:30;6.60;99.90
8591;DHT22;4333;48.322;14.340;2023-03-23T04:10:56;6.60;99.90
8591;DHT22;4333;48.322;14.340;2023-03-23T04:13:22;6.60;99.90
8591;DHT22;4333;48.322;14.340;2023-03-23T04:15:48;6.60;99.90
8591;DHT22;4333;48.322;14.340;2023-03-23T04:18:14;6.60;99.90
8591;DHT22;4333;48.322;14.340;2023-03-23T04:20:46;6.60;99.90
8591;DHT22;4333;48.322;14.340;2023-03-23T04:23:13;6.70;99.90
8591;DHT22;4333;48.322;14.340;2023-03-23T04:25:39;6.70;99.90
8591;DHT22;4333;48.322;14.340;2023-03-23T04:28:10;6.70;99.90
8591;DHT22;4333;48.322;14.340;2023-03-23T04:30:36;6.70;99.90
8591;DHT22;4333;48.322;14.340;2023-03-23T04:33:02;6.60;99.90
8591;DHT22;4333;48.322;14.340;2023-03-23T04:35:29;6.60;99.90
8591;DHT22;4333;48.322;14.340;2023-03-23T04:37:55;6.70;99.90
8591;DHT22;4333;48.322;14.340;2023-03-23T04:40:21;6.70;99.90
8591;DHT22;4333;48.322;14.340;2023-03-23T04:42:47;6.70;99.90
8591;DHT22;4333;48.322;14.340;2023-03-23T04:45:16;6.70;99.90
8591;DHT22;4333;48.322;14.340;2023-03-23T04:47:48;6.60;99.90
8591;DHT22;4333;48.322;14.340;2023-03-23T04:50:20;6.60;99.90
8591;DHT22;4333;48.322;14.340;2023-03-23T04:52:47;6.70;99.90
8591;DHT22;4333;48.322;14.340;2023-03-23T04:55:13;6.70;99.90
8591;DHT22;4333;48.322;14.340;2023-03-23T04:57:39;6.60;99.90
8591;DHT22;4333;48.322;14.340;2023-03-23T05:00:06;6.70;99.90
8591;DHT22;4333;48.322;14.340;2023-03-23T05:02:38;6.60;99.90
8591;DHT22;4333;48.322;14.340;2023-03-23T05:05:09;6.70;99.90
8591;DHT22;4333;48.322;14.340;2023-03-23T05:07:37;6.70;99.90
8591;DHT22;4333;48.322;14.340;2023-03-23T05:10:04;6.60;99.90
8591;DHT22;4333;48.322;14.340;2023-03-23T05:12:31;6.50;99.90
8591;DHT22;4333;48.322;14.340;2023-03-23T05:14:56;6.50;99.90
8591;DHT22;4333;48.322;14.340;2023-03-23T05:17:22;6.50;99.90
8591;DHT22;4333;48.322;14.340;2023-03-23T05:19:50;6.50;99.90
8591;DHT22;4333;48.322;14.340;2023-03-23T05:22:16;6.60;99.90
8591;DHT22;4333;48.322;14.340;2023-03-23T05:24:44;6.60;99.90
8591;DHT22;4333;48.322;14.340;2023-03-23T05:27:10;6.50;99.90
8591;DHT22;4333;48.322;14.340;2023-03-23T05:29:36;6.60;99.90
8591;DHT22;4333;48.322;14.340;2023-03-23T05:32:03;6.50;99.90
8591;DHT22;4333;48.322;14.340;2023-03-23T05:34:31;6.60;99.90
8591;DHT22;4333;48.322;14.340;2023-03-23T05:37:02;6.70;99.90
8591;DHT22;4333;48.322;14.340;2023-03-23T05:39:29;6.70;99.90
8591;DHT22;4333;48.322;14.340;2023-03-23T05:41:55;6.70;99.90
8591;DHT22;4333;48.322;14.340;2023-03-23T05:44:21;6.80;99.90
8591;DHT22;4333;48.322;14.340;2023-03-23T05:46:47;6.80;99.90
8591;DHT22;4333;48.322;14.340;2023-03-23T05:49:14;6.90;99.90
8591;DHT22;4333;48.322;14.340;2023-03-23T05:51:41;6.90;99.90
8591;DHT22;4333;48.322;14.340;2023-03-23T05:54:07;7.00;99.90
8591;DHT22;4333;48.322;14.340;2023-03-23T05:56:33;7.00;99.90
8591;DHT22;4333;48.322;14.340;2023-03-23T05:58:59;7.10;99.90
8591;DHT22;4333;48.322;14.340;2023-03-23T06:01:26;7.00;99.90
8591;DHT22;4333;48.322;14.340;2023-03-23T06:03:55;7.10;99.90
8591;DHT22;4333;48.322;14.340;2023-03-23T06:06:28;7.20;99.90
8591;DHT22;4333;48.322;14.340;2023-03-23T06:08:55;7.20;99.90
8591;DHT22;4333;48.322;14.340;2023-03-23T06:11:22;7.20;99.90
8591;DHT22;4333;48.322;14.340;2023-03-23T06:13:48;7.30;99.90
8591;DHT22;4333;48.322;14.340;2023-03-23T06:16:14;7.30;99.90
8591;DHT22;4333;48.322;14.340;2023-03-23T06:18:40;7.50;99.90
8591;DHT22;4333;48.322;14.340;2023-03-23T06:21:08;7.60;99.90
8591;DHT22;4333;48.322;14.340;2023-03-23T06:23:34;7.70;99.90
8591;DHT22;4333;48.322;14.340;2023-03-23T06:26:05;7.80;99.90
8591;DHT22;4333;48.322;14.340;2023-03-23T06:28:31;7.90;99.90
8591;DHT22;4333;48.322;14.340;2023-03-23T06:31:02;8.00;99.90
8591;DHT22;4333;48.322;14.340;2023-03-23T06:33:30;8.10;99.90
8591;DHT22;4333;48.322;14.340;2023-03-23T06:35:55;8.20;99.90
8591;DHT22;4333;48.322;14.340;2023-03-23T06:38:21;8.30;99.90
8591;DHT22;4333;48.322;14.340;2023-03-23T06:40:47;8.40;99.90
8591;DHT22;4333;48.322;14.340;2023-03-23T06:43:13;8.50;99.90
8591;DHT22;4333;48.322;14.340;2023-03-23T06:45:39;8.60;99.90
8591;DHT22;4333;48.322;14.340;2023-03-23T06:48:06;8.70;99.90
8591;DHT22;4333;48.322;14.340;2023-03-23T06:50:32;8.80;99.90
8591;DHT22;4333;48.322;14.340;2023-03-23T06:52:58;8.90;99.90
8591;DHT22;4333;48.322;14.340;2023-03-23T06:55:23;8.90;99.90
8591;DHT22;4333;48.322;14.340;2023-03-23T06:57:49;9.00;99.90
8591;DHT22;4333;48.322;14.340;2023-03-23T07:00:15;9.20;99.90
8591;DHT22;4333;48.322;14.340;2023-03-23T07:02:41;9.30;99.90
8591;DHT22;4333;48.322;14.340;2023-03-23T07:05:11;9.50;99.90
8591;DHT22;4333;48.322;14.340;2023-03-23T07:07:38;9.60;99.90
8591;DHT22;4333;48.322;14.340;2023-03-23T07:10:08;9.90;99.90
8591;DHT22;4333;48.322;14.340;2023-03-23T07:12:34;10.20;99.90
8591;DHT22;4333;48.322;14.340;2023-03-23T07:15:02;10.60;98.40
8591;DHT22;4333;48.322;14.340;2023-03-23T07:17:28;11.10;95.00
8591;DHT22;4333;48.322;14.340;2023-03-23T07:19:54;11.80;90.20
8591;DHT22;4333;48.322;14.340;2023-03-23T07:22:20;12.60;73.90
8591;DHT22;4333;48.322;14.340;2023-03-23T07:24:46;13.30;64.80
8591;DHT22;4333;48.322;14.340;2023-03-23T07:27:12;13.90;56.80
8591;DHT22;4333;48.322;14.340;2023-03-23T07:29:39;14.40;50.10
8591;DHT22;4333;48.322;14.340;2023-03-23T07:32:05;15.20;45.40
8591;DHT22;4333;48.322;14.340;2023-03-23T07:34:32;16.10;41.00
8591;DHT22;4333;48.322;14.340;2023-03-23T07:36:58;17.10;22.20
8591;DHT22;4333;48.322;14.340;2023-03-23T07:39:24;17.50;7.30
8591;DHT22;4333;48.322;14.340;2023-03-23T07:41:53;17.30;3.60
8591;DHT22;4333;48.322;14.340;2023-03-23T07:44:19;16.90;4.50
8591;DHT22;4333;48.322;14.340;2023-03-23T07:46:45;17.50;2.90
8591;DHT22;4333;48.322;14.340;2023-03-23T07:49:10;17.80;1.00
8591;DHT22;4333;48.322;14.340;2023-03-23T07:51:36;17.80;1.00
8591;DHT22;4333;48.322;14.340;2023-03-23T07:54:05;17.80;1.10
8591;DHT22;4333;48.322;14.340;2023-03-23T07:56:33;18.30;1.00
8591;DHT22;4333;48.322;14.340;2023-03-23T07:58:59;17.80;1.00
8591;DHT22;4333;48.322;14.340;2023-03-23T08:01:25;17.90;1.00
8591;DHT22;4333;48.322;14.340;2023-03-23T08:03:50;17.90;1.00
8591;DHT22;4333;48.322;14.340;2023-03-23T08:06:17;18.90;1.00
8591;DHT22;4333;48.322;14.340;2023-03-23T08:08:43;19.30;1.00
8591;DHT22;4333;48.322;14.340;2023-03-23T08:11:08;19.20;1.00
8591;DHT22;4333;48.322;14.340;2023-03-23T08:13:34;18.80;1.00
8591;DHT22;4333;48.322;14.340;2023-03-23T08:16:01;18.00;1.00
8591;DHT22;4333;48.322;14.340;2023-03-23T08:18:30;16.50;1.00
8591;DHT22;4333;48.322;14.340;2023-03-23T08:20:57;14.80;7.90
8591;DHT22;4333;48.322;14.340;2023-03-23T08:23:23;14.20;17.00
8591;DHT22;4333;48.322;14.340;2023-03-23T08:25:49;14.10;23.40
8591;DHT22;4333;48.322;14.340;2023-03-23T08:28:15;14.50;21.60
8591;DHT22;4333;48.322;14.340;2023-03-23T08:30:41;15.00;20.90
8591;DHT22;4333;48.322;14.340;2023-03-23T08:33:08;16.50;12.10
8591;DHT22;4333;48.322;14.340;2023-03-23T08:35:36;18.00;5.70
8591;DHT22;4333;48.322;14.340;2023-03-23T08:38:04;19.20;1.00
8591;DHT22;4333;48.322;14.340;2023-03-23T08:40:29;20.10;1.00
8591;DHT22;4333;48.322;14.340;2023-03-23T08:42:55;20.70;1.00
8591;DHT22;4333;48.322;14.340;2023-03-23T08:45:23;21.20;1.00
8591;DHT22;4333;48.322;14.340;2023-03-23T08:47:50;21.50;1.00
8591;DHT22;4333;48.322;14.340;2023-03-23T08:50:20;21.30;1.00
8591;DHT22;4333;48.322;14.340;2023-03-23T08:52:47;21.80;1.00
8591;DHT22;4333;48.322;14.340;2023-03-23T08:55:13;21.80;1.00
8591;DHT22;4333;48.322;14.340;2023-03-23T08:57:40;20.60;1.00
8591;DHT22;4333;48.322;14.340;2023-03-23T09:00:10;19.60;1.00
8591;DHT22;4333;48.322;14.340;2023-03-23T09:02:52;19.00;1.00
8591;DHT22;4333;48.322;14.340;2023-03-23T09:05:23;19.10;1.00
8591;DHT22;4333;48.322;14.340;2023-03-23T09:07:51;19.60;1.00
8591;DHT22;4333;48.322;14.340;2023-03-23T09:10:18;19.50;1.00
8591;DHT22;4333;48.322;14.340;2023-03-23T09:12:45;20.30;1.00
8591;DHT22;4333;48.322;14.340;2023-03-23T09:15:15;21.00;1.00
8591;DHT22;4333;48.322;14.340;2023-03-23T09:17:44;21.20;1.00
8591;DHT22;4333;48.322;14.340;2023-03-23T09:20:11;19.90;1.00
8591;DHT22;4333;48.322;14.340;2023-03-23T09:22:43;19.10;1.00
8591;DHT22;4333;48.322;14.340;2023-03-23T09:25:11;18.50;1.00
8591;DHT22;4333;48.322;14.340;2023-03-23T09:27:38;18.20;1.00
8591;DHT22;4333;48.322;14.340;2023-03-23T09:30:07;18.10;1.00
8591;DHT22;4333;48.322;14.340;2023-03-23T09:32:34;18.50;1.00
8591;DHT22;4333;48.322;14.340;2023-03-23T09:35:01;18.70;1.00
8591;DHT22;4333;48.322;14.340;2023-03-23T09:37:26;18.50;1.00
8591;DHT22;4333;48.322;14.340;2023-03-23T09:39:53;19.00;1.00
8591;DHT22;4333;48.322;14.340;2023-03-23T09:42:31;19.50;1.00
8591;DHT22;4333;48.322;14.340;2023-03-23T09:45:09;19.30;1.00
8591;DHT22;4333;48.322;14.340;2023-03-23T09:47:46;18.90;1.00
8591;DHT22;4333;48.322;14.340;2023-03-23T09:50:28;18.80;1.00
8591;DHT22;4333;48.322;14.340;2023-03-23T09:53:10;19.10;1.00
8591;DHT22;4333;48.322;14.340;2023-03-23T09:55:39;19.30;1.00
8591;DHT22;4333;48.322;14.340;2023-03-23T09:58:23;19.60;1.00
8591;DHT22;4333;48.322;14.340;2023-03-23T10:03:27;19.70;1.00
8591;DHT22;4333;48.322;14.340;2023-03-23T10:05:56;19.70;1.00
8591;DHT22;4333;48.322;14.340;2023-03-23T10:08:24;19.80;1.00
8591;DHT22;4333;48.322;14.340;2023-03-23T10:11:06;20.00;1.00
8591;DHT22;4333;48.322;14.340;2023-03-23T10:16:09;20.60;1.00
8591;DHT22;4333;48.322;14.340;2023-03-23T10:18:49;20.40;1.00
8591;DHT22;4333;48.322;14.340;2023-03-23T10:21:20;19.50;1.00
8591;DHT22;4333;48.322;14.340;2023-03-23T10:24:00;18.40;1.00
8591;DHT22;4333;48.322;14.340;2023-03-23T10:26:48;18.20;1.00
8591;DHT22;4333;48.322;14.340;2023-03-23T10:32:20;18.10;1.00
8591;DHT22;4333;48.322;14.340;2023-03-23T10:35:00;17.90;1.00
8591;DHT22;4333;48.322;14.340;2023-03-23T10:37:29;18.10;1.00
8591;DHT22;4333;48.322;14.340;2023-03-23T10:39:59;17.70;1.00
8591;DHT22;4333;48.322;14.340;2023-03-23T10:42:33;17.70;1.00
8591;DHT22;4333;48.322;14.340;2023-03-23T10:45:10;18.10;1.00
8591;DHT22;4333;48.322;14.340;2023-03-23T10:47:41;18.30;1.00
8591;DHT22;4333;48.322;14.340;2023-03-23T10:50:15;18.50;1.00
8591;DHT22;4333;48.322;14.340;2023-03-23T10:52:44;18.70;1.00
8591;DHT22;4333;48.322;14.340;2023-03-23T10:55:19;19.20;1.00
8591;DHT22;4333;48.322;14.340;2023-03-23T10:58:08;19.20;1.00
8591;DHT22;4333;48.322;14.340;2023-03-23T11:00:46;19.50;1.00
8591;DHT22;4333;48.322;14.340;2023-03-23T11:05:50;19.40;1.00
8591;DHT22;4333;48.322;14.340;2023-03-23T11:08:22;20.10;1.00
8591;DHT22;4333;48.322;14.340;2023-03-23T11:10:56;20.60;1.00
8591;DHT22;4333;48.322;14.340;2023-03-23T11:13:28;21.00;1.00
8591;DHT22;4333;48.322;14.340;2023-03-23T11:15:54;21.20;1.00
8591;DHT22;4333;48.322;14.340;2023-03-23T11:18:39;20.60;1.00
8591;DHT22;4333;48.322;14.340;2023-03-23T11:21:11;20.20;1.00
8591;DHT22;4333;48.322;14.340;2023-03-23T11:23:40;20.70;1.00
8591;DHT22;4333;48.322;14.340;2023-03-23T11:28:51;20.40;1.00
8591;DHT22;4333;48.322;14.340;2023-03-23T11:31:23;20.60;1.00
8591;DHT22;4333;48.322;14.340;2023-03-23T11:34:15;21.10;1.00
8591;DHT22;4333;48.322;14.340;2023-03-23T11:37:32;21.20;1.00
8591;DHT22;4333;48.322;14.340;2023-03-23T11:42:23;21.00;1.00
8591;DHT22;4333;48.322;14.340;2023-03-23T11:44:53;21.40;1.00
8591;DHT22;4333;48.322;14.340;2023-03-23T11:47:24;21.70;1.00
8591;DHT22;4333;48.322;14.340;2023-03-23T11:50:03;22.00;1.00
8591;DHT22;4333;48.322;14.340;2023-03-23T11:52:39;22.30;1.00
8591;DHT22;4333;48.322;14.340;2023-03-23T11:55:22;22.40;1.00
8591;DHT22;4333;48.322;14.340;2023-03-23T11:57:48;22.00;1.00
8591;DHT22;4333;48.322;14.340;2023-03-23T12:00:20;21.60;1.00
8591;DHT22;4333;48.322;14.340;2023-03-23T12:14:12;22.10;1.00
8591;DHT22;4333;48.322;14.340;2023-03-23T12:16:54;22.00;1.00
8591;DHT22;4333;48.322;14.340;2023-03-23T12:23:37;21.30;1.00
8591;DHT22;4333;48.322;14.340;2023-03-23T12:30:53;22.10;1.00
8591;DHT22;4333;48.322;14.340;2023-03-23T12:36:08;22.40;1.00
8591;DHT22;4333;48.322;14.340;2023-03-23T12:41:49;21.90;1.00
8591;DHT22;4333;48.322;14.340;2023-03-23T12:44:23;21.50;1.00
8591;DHT22;4333;48.322;14.340;2023-03-23T12:47:11;21.40;1.00
8591;DHT22;4333;48.322;14.340;2023-03-23T12:49:50;22.00;1.00
8591;DHT22;4333;48.322;14.340;2023-03-23T12:52:29;22.60;1.00
8591;DHT22;4333;48.322;14.340;2023-03-23T12:57:45;21.80;1.00
8591;DHT22;4333;48.322;14.340;2023-03-23T13:05:42;23.20;1.00
8591;DHT22;4333;48.322;14.340;2023-03-23T13:08:17;23.10;1.00
8591;DHT22;4333;48.322;14.340;2023-03-23T13:10:51;23.20;1.00
8591;DHT22;4333;48.322;14.340;2023-03-23T13:13:39;23.40;1.00
8591;DHT22;4333;48.322;14.340;2023-03-23T13:16:16;23.50;1.00
8591;DHT22;4333;48.322;14.340;2023-03-23T13:18:49;23.60;1.00
8591;DHT22;4333;48.322;14.340;2023-03-23T13:21:19;23.50;1.00
8591;DHT22;4333;48.322;14.340;2023-03-23T13:23:50;23.20;1.00
8591;DHT22;4333;48.322;14.340;2023-03-23T13:26:20;22.80;1.00
8591;DHT22;4333;48.322;14.340;2023-03-23T13:31:45;22.60;1.00
8591;DHT22;4333;48.322;14.340;2023-03-23T13:34:19;22.70;1.00
8591;DHT22;4333;48.322;14.340;2023-03-23T13:36:57;22.70;1.00
8591;DHT22;4333;48.322;14.340;2023-03-23T13:39:38;22.80;1.00
8591;DHT22;4333;48.322;14.340;2023-03-23T13:55:16;22.80;1.00
8591;DHT22;4333;48.322;14.340;2023-03-23T14:13:10;21.50;1.00
8591;DHT22;4333;48.322;14.340;2023-03-23T14:15:56;21.60;1.00
8591;DHT22;4333;48.322;14.340;2023-03-23T14:18:25;21.60;1.00
8591;DHT22;4333;48.322;14.340;2023-03-23T14:20:52;21.70;1.00
8591;DHT22;4333;48.322;14.340;2023-03-23T14:23:19;21.90;1.00
8591;DHT22;4333;48.322;14.340;2023-03-23T14:25:53;22.00;1.00
8591;DHT22;4333;48.322;14.340;2023-03-23T14:28:22;22.00;1.00
8591;DHT22;4333;48.322;14.340;2023-03-23T14:30:52;21.90;1.00
8591;DHT22;4333;48.322;14.340;2023-03-23T14:33:20;21.90;1.00
8591;DHT22;4333;48.322;14.340;2023-03-23T14:35:46;21.80;1.00
8591;DHT22;4333;48.322;14.340;2023-03-23T14:38:22;21.70;1.00
8591;DHT22;4333;48.322;14.340;2023-03-23T14:40:50;21.80;1.00
8591;DHT22;4333;48.322;14.340;2023-03-23T14:43:19;21.80;1.00
8591;DHT22;4333;48.322;14.340;2023-03-23T14:45:50;21.50;1.00
8591;DHT22;4333;48.322;14.340;2023-03-23T14:48:16;21.40;1.00
8591;DHT22;4333;48.322;14.340;2023-03-23T14:50:50;21.50;1.00
8591;DHT22;4333;48.322;14.340;2023-03-23T14:53:31;21.70;1.00
8591;DHT22;4333;48.322;14.340;2023-03-23T14:56:01;21.90;1.00
8591;DHT22;4333;48.322;14.340;2023-03-23T14:58:28;21.90;1.00
8591;DHT22;4333;48.322;14.340;2023-03-23T15:00:56;22.00;1.00
8591;DHT22;4333;48.322;14.340;2023-03-23T15:03:24;22.00;1.00
8591;DHT22;4333;48.322;14.340;2023-03-23T15:05:58;22.00;1.00
8591;DHT22;4333;48.322;14.340;2023-03-23T15:08:31;22.00;1.00
8591;DHT22;4333;48.322;14.340;2023-03-23T15:11:12;21.90;1.00
8591;DHT22;4333;48.322;14.340;2023-03-23T15:13:43;21.90;1.00
8591;DHT22;4333;48.322;14.340;2023-03-23T15:16:17;21.90;1.00
8591;DHT22;4333;48.322;14.340;2023-03-23T15:19:11;21.70;1.00
8591;DHT22;4333;48.322;14.340;2023-03-23T15:21:45;21.70;1.00
8591;DHT22;4333;48.322;14.340;2023-03-23T15:26:45;21.50;1.00
8591;DHT22;4333;48.322;14.340;2023-03-23T15:29:18;21.40;1.00
8591;DHT22;4333;48.322;14.340;2023-03-23T15:34:20;21.30;1.00
8591;DHT22;4333;48.322;14.340;2023-03-23T15:37:00;21.30;1.00
8591;DHT22;4333;48.322;14.340;2023-03-23T15:39:27;21.30;1.00
8591;DHT22;4333;48.322;14.340;2023-03-23T15:41:54;21.30;1.00
8591;DHT22;4333;48.322;14.340;2023-03-23T15:44:33;21.20;1.00
8591;DHT22;4333;48.322;14.340;2023-03-23T15:47:17;21.10;1.00
8591;DHT22;4333;48.322;14.340;2023-03-23T15:49:45;21.00;1.00
8591;DHT22;4333;48.322;14.340;2023-03-23T15:52:13;21.00;1.00
8591;DHT22;4333;48.322;14.340;2023-03-23T15:54:46;21.10;1.00
8591;DHT22;4333;48.322;14.340;2023-03-23T15:57:12;21.10;1.00
8591;DHT22;4333;48.322;14.340;2023-03-23T15:59:38;20.90;1.00
8591;DHT22;4333;48.322;14.340;2023-03-23T16:02:03;20.80;1.00
8591;DHT22;4333;48.322;14.340;2023-03-23T16:04:29;20.80;1.00
8591;DHT22;4333;48.322;14.340;2023-03-23T16:06:56;20.90;1.00
8591;DHT22;4333;48.322;14.340;2023-03-23T16:09:23;21.00;1.00
8591;DHT22;4333;48.322;14.340;2023-03-23T16:11:49;21.10;1.00
8591;DHT22;4333;48.322;14.340;2023-03-23T16:14:15;21.10;1.00
8591;DHT22;4333;48.322;14.340;2023-03-23T16:16:46;21.00;1.00
8591;DHT22;4333;48.322;14.340;2023-03-23T16:19:14;20.90;1.00
8591;DHT22;4333;48.322;14.340;2023-03-23T16:21:41;20.70;1.00
8591;DHT22;4333;48.322;14.340;2023-03-23T16:24:07;20.70;1.00
8591;DHT22;4333;48.322;14.340;2023-03-23T16:26:34;20.60;1.00
8591;DHT22;4333;48.322;14.340;2023-03-23T16:29:00;20.60;1.00
8591;DHT22;4333;48.322;14.340;2023-03-23T16:31:27;20.60;1.00
8591;DHT22;4333;48.322;14.340;2023-03-23T16:33:53;20.60;1.00
8591;DHT22;4333;48.322;14.340;2023-03-23T16:36:19;20.40;1.00
8591;DHT22;4333;48.322;14.340;2023-03-23T16:38:45;20.30;1.00
8591;DHT22;4333;48.322;14.340;2023-03-23T16:41:10;20.10;1.00
8591;DHT22;4333;48.322;14.340;2023-03-23T16:43:36;20.10;1.00
8591;DHT22;4333;48.322;14.340;2023-03-23T16:46:02;20.10;1.00
8591;DHT22;4333;48.322;14.340;2023-03-23T16:48:28;20.00;1.00
8591;DHT22;4333;48.322;14.340;2023-03-23T16:50:53;19.80;1.00
8591;DHT22;4333;48.322;14.340;2023-03-23T16:53:20;19.60;1.00
8591;DHT22;4333;48.322;14.340;2023-03-23T16:55:46;19.40;1.00
8591;DHT22;4333;48.322;14.340;2023-03-23T16:58:14;19.20;1.00
8591;DHT22;4333;48.322;14.340;2023-03-23T17:00:41;18.80;1.00
8591;DHT22;4333;48.322;14.340;2023-03-23T17:03:07;18.70;1.00
8591;DHT22;4333;48.322;14.340;2023-03-23T17:05:34;18.40;1.00
8591;DHT22;4333;48.322;14.340;2023-03-23T17:08:01;18.20;1.00
8591;DHT22;4333;48.322;14.340;2023-03-23T17:10:28;18.10;1.00
8591;DHT22;4333;48.322;14.340;2023-03-23T17:12:54;18.00;1.00
8591;DHT22;4333;48.322;14.340;2023-03-23T17:15:21;17.80;1.00
8591;DHT22;4333;48.322;14.340;2023-03-23T17:17:48;17.60;1.00
8591;DHT22;4333;48.322;14.340;2023-03-23T17:20:14;17.40;1.00
8591;DHT22;4333;48.322;14.340;2023-03-23T17:22:42;17.20;1.00
8591;DHT22;4333;48.322;14.340;2023-03-23T17:25:09;17.30;1.00
8591;DHT22;4333;48.322;14.340;2023-03-23T17:27:35;17.20;1.00
8591;DHT22;4333;48.322;14.340;2023-03-23T17:30:06;17.20;1.00
8591;DHT22;4333;48.322;14.340;2023-03-23T17:32:34;17.10;1.00
8591;DHT22;4333;48.322;14.340;2023-03-23T17:35:01;17.00;1.00
8591;DHT22;4333;48.322;14.340;2023-03-23T17:37:27;17.10;1.00
8591;DHT22;4333;48.322;14.340;2023-03-23T17:39:52;16.90;1.00
8591;DHT22;4333;48.322;14.340;2023-03-23T17:42:18;17.00;1.00
8591;DHT22;4333;48.322;14.340;2023-03-23T17:44:44;16.90;1.00
8591;DHT22;4333;48.322;14.340;2023-03-23T17:47:10;16.90;1.00
8591;DHT22;4333;48.322;14.340;2023-03-23T17:49:36;16.80;1.00
8591;DHT22;4333;48.322;14.340;2023-03-23T17:52:02;16.70;1.00
8591;DHT22;4333;48.322;14.340;2023-03-23T17:54:28;16.50;1.00
8591;DHT22;4333;48.322;14.340;2023-03-23T17:56:55;16.20;1.00
8591;DHT22;4333;48.322;14.340;2023-03-23T17:59:23;16.00;1.00
8591;DHT22;4333;48.322;14.340;2023-03-23T18:01:50;15.80;1.00
8591;DHT22;4333;48.322;14.340;2023-03-23T18:04:16;15.70;1.00
8591;DHT22;4333;48.322;14.340;2023-03-23T18:06:42;15.80;1.00